Time;durP1;ratioP1;P1;durP2;ratioP2;P2;SDS_P1;SDS_P2;PMS_P1;PMS_P2;Temp;Humidity;BMP_temperature;BMP_pressure;BME280_temperature;BME280_humidity;BME280_pressure;Samples;Min_cycle;Max_cycle;Signal;HPM_P1;HPM_P2
2022/05/31 00:01:00;;;;;;;4.17;3.00;;;8.60;67.60;;;;;;5035279;28;20523;-60
2022/05/31 00:03:25;;;;;;;5.10;3.50;;;8.60;67.60;;;;;;5034418;28;20268;-60
2022/05/31 00:05:51;;;;;;;3.83;3.40;;;8.60;67.40;;;;;;5033764;28;20183;-59
2022/05/31 00:08:17;;;;;;;3.17;2.80;;;8.60;67.40;;;;;;5032595;28;20183;-59
2022/05/31 00:10:43;;;;;;;6.17;3.03;;;8.60;68.00;;;;;;5033807;28;20524;-58
2022/05/31 00:13:08;;;;;;;3.10;2.90;;;8.60;68.00;;;;;;5032387;28;20892;-60
2022/05/31 00:15:34;;;;;;;5.17;3.47;;;8.50;68.70;;;;;;5033562;28;20178;-60
2022/05/31 00:18:00;;;;;;;4.53;3.20;;;8.50;68.70;;;;;;5036766;28;20204;-59
2022/05/31 00:20:25;;;;;;;3.90;3.47;;;8.50;69.00;;;;;;5031009;28;20249;-60
2022/05/31 00:22:51;;;;;;;5.43;3.60;;;8.50;69.70;;;;;;5034339;28;21102;-59
2022/05/31 00:25:18;;;;;;;3.67;2.93;;;8.40;69.80;;;;;;5031215;28;20190;-60
2022/05/31 00:27:44;;;;;;;4.30;2.90;;;8.50;70.20;;;;;;5031165;28;20500;-60
2022/05/31 00:30:11;;;;;;;4.70;3.20;;;8.40;70.70;;;;;;5028848;28;20465;-60
2022/05/31 00:32:41;;;;;;;4.87;3.30;;;8.40;71.00;;;;;;5029841;28;20445;-60
2022/05/31 00:35:12;;;;;;;5.43;3.43;;;8.40;71.30;;;;;;5031584;28;20484;-61
2022/05/31 00:37:38;;;;;;;3.43;3.13;;;8.40;71.00;;;;;;5029129;28;20445;-60
2022/05/31 00:40:05;;;;;;;4.80;3.50;;;8.40;71.50;;;;;;5031207;28;20445;-59
2022/05/31 00:42:46;;;;;;;4.97;3.60;;;8.30;72.10;;;;;;5034932;28;20306;-60
2022/05/31 00:45:12;;;;;;;6.00;3.03;;;8.30;72.50;;;;;;5032530;28;20441;-60
2022/05/31 00:47:38;;;;;;;5.00;3.00;;;8.30;72.20;;;;;;5038715;28;20452;-60
2022/05/31 00:50:10;;;;;;;3.03;2.77;;;8.30;73.20;;;;;;5033862;28;20206;-59
2022/05/31 00:52:42;;;;;;;7.53;3.37;;;8.30;73.60;;;;;;5042864;28;20167;-59
2022/05/31 00:55:16;;;;;;;5.43;3.50;;;8.30;73.70;;;;;;5031850;28;20980;-59
2022/05/31 00:57:48;;;;;;;5.13;3.40;;;8.30;74.90;;;;;;5044130;28;20532;-60
2022/05/31 01:00:15;;;;;;;4.50;3.50;;;8.20;75.60;;;;;;5039932;28;20430;-60
2022/05/31 01:02:43;;;;;;;7.67;3.07;;;8.30;76.40;;;;;;5036886;28;20488;-59
2022/05/31 01:05:13;;;;;;;4.87;3.87;;;8.30;77.20;;;;;;5030862;28;20490;-59
2022/05/31 01:07:39;;;;;;;8.20;3.63;;;8.30;76.60;;;;;;5034322;28;20433;-60
2022/05/31 01:10:08;;;;;;;5.40;3.00;;;8.30;77.60;;;;;;5035729;28;20464;-59
2022/05/31 01:12:34;;;;;;;3.87;3.00;;;8.30;78.10;;;;;;5036345;28;20606;-60
2022/05/31 01:15:01;;;;;;;3.83;3.17;;;8.30;77.90;;;;;;5033779;28;21070;-59
2022/05/31 01:17:27;;;;;;;8.33;4.80;;;8.30;77.80;;;;;;5031572;28;20959;-59
2022/05/31 01:19:56;;;;;;;6.30;3.97;;;8.30;77.70;;;;;;5041648;28;20459;-60
2022/05/31 01:22:28;;;;;;;7.23;4.00;;;8.30;77.30;;;;;;5036058;28;20563;-58
2022/05/31 01:25:01;;;;;;;3.73;3.40;;;8.20;77.50;;;;;;5033791;28;20433;-60
2022/05/31 01:28:01;;;;;;;4.00;3.17;;;8.20;77.70;;;;;;5037125;28;20954;-59
2022/05/31 01:30:30;;;;;;;4.23;3.10;;;8.10;79.10;;;;;;5003277;28;20610;-60
2022/05/31 01:33:08;;;;;;;4.20;3.43;;;8.10;79.40;;;;;;5039997;28;20569;-59
2022/05/31 01:35:35;;;;;;;3.90;3.50;;;8.00;80.20;;;;;;5036782;28;20432;-61
2022/05/31 01:38:22;;;;;;;6.23;3.67;;;8.00;80.70;;;;;;5039221;28;20548;-58
2022/05/31 01:40:59;;;;;;;6.40;3.47;;;7.90;81.20;;;;;;5037167;28;20500;-60
2022/05/31 01:43:25;;;;;;;4.80;3.50;;;7.90;81.00;;;;;;5040114;28;20455;-59
2022/05/31 01:46:09;;;;;;;3.60;3.30;;;7.90;81.90;;;;;;5038830;28;20437;-60
2022/05/31 01:48:37;;;;;;;3.67;3.23;;;7.90;82.50;;;;;;5043264;28;20245;-60
2022/05/31 01:51:04;;;;;;;4.60;3.77;;;7.80;83.70;;;;;;5054175;28;20808;-59
2022/05/31 01:53:32;;;;;;;4.20;3.50;;;7.80;84.80;;;;;;5044160;28;20473;-60
2022/05/31 01:55:58;;;;;;;5.40;3.57;;;7.70;84.70;;;;;;5038926;28;20465;-60
2022/05/31 01:58:28;;;;;;;3.57;3.27;;;7.70;85.90;;;;;;5034363;28;20458;-59
2022/05/31 02:00:54;;;;;;;4.87;3.23;;;7.70;86.80;;;;;;5046606;28;20449;-59
2022/05/31 02:03:21;;;;;;;3.73;3.27;;;7.70;87.10;;;;;;5045178;28;20445;-59
2022/05/31 02:05:52;;;;;;;6.70;3.20;;;7.70;87.50;;;;;;5052113;28;20183;-59
2022/05/31 02:08:21;;;;;;;4.90;3.83;;;7.70;87.00;;;;;;5039727;28;20437;-60
2022/05/31 02:10:48;;;;;;;4.33;3.53;;;7.60;87.40;;;;;;5038819;28;20457;-59
2022/05/31 02:13:15;;;;;;;4.17;3.77;;;7.60;88.40;;;;;;5036949;28;20453;-60
2022/05/31 02:15:41;;;;;;;4.77;3.77;;;7.60;89.40;;;;;;5036778;28;20838;-59
2022/05/31 02:18:07;;;;;;;3.77;3.33;;;7.60;90.10;;;;;;5035398;28;20433;-59
2022/05/31 02:20:33;;;;;;;5.07;4.03;;;7.60;90.00;;;;;;5037566;28;20257;-59
2022/05/31 02:22:58;;;;;;;6.10;3.67;;;7.50;89.60;;;;;;5037858;28;21024;-59
2022/05/31 02:25:24;;;;;;;6.83;3.70;;;7.50;90.30;;;;;;5032325;28;20258;-58
2022/05/31 02:27:50;;;;;;;5.03;3.40;;;7.50;90.20;;;;;;5033377;28;20316;-58
2022/05/31 02:30:16;;;;;;;4.37;3.60;;;7.50;90.10;;;;;;5036109;28;20290;-59
2022/05/31 02:32:42;;;;;;;4.60;3.67;;;7.50;90.20;;;;;;5038337;28;20202;-59
2022/05/31 02:35:09;;;;;;;4.43;4.00;;;7.50;90.30;;;;;;5039209;28;20422;-59
2022/05/31 02:37:35;;;;;;;8.67;3.80;;;7.50;90.30;;;;;;5037424;28;20908;-59
2022/05/31 02:40:01;;;;;;;4.00;3.60;;;7.50;90.20;;;;;;5039098;28;20799;-59
2022/05/31 02:42:27;;;;;;;4.13;3.73;;;7.40;90.40;;;;;;5036092;28;20443;-59
2022/05/31 02:44:53;;;;;;;7.60;3.57;;;7.40;90.60;;;;;;5036326;28;20175;-60
2022/05/31 02:47:19;;;;;;;4.80;3.80;;;7.40;90.50;;;;;;5034880;28;20198;-60
2022/05/31 02:49:46;;;;;;;4.40;4.00;;;7.40;90.40;;;;;;5034243;28;20441;-60
2022/05/31 02:52:12;;;;;;;7.83;4.33;;;7.40;90.60;;;;;;5035142;28;20472;-59
2022/05/31 02:54:37;;;;;;;4.10;3.70;;;7.30;90.90;;;;;;5036521;28;20485;-59
2022/05/31 02:57:04;;;;;;;5.00;3.47;;;7.30;91.00;;;;;;5035049;28;20269;-60
2022/05/31 02:59:30;;;;;;;3.87;3.47;;;7.20;91.10;;;;;;5031078;28;20207;-60
2022/05/31 03:01:55;;;;;;;4.03;3.63;;;7.20;91.80;;;;;;5038349;28;23013;-59
2022/05/31 03:04:21;;;;;;;6.50;3.60;;;7.10;92.10;;;;;;5034805;28;20461;-60
2022/05/31 03:06:47;;;;;;;4.53;3.77;;;7.10;92.70;;;;;;5037378;28;20405;-61
2022/05/31 03:09:12;;;;;;;4.70;3.50;;;7.10;93.40;;;;;;5041586;28;20718;-59
2022/05/31 03:11:52;;;;;;;4.20;3.80;;;7.10;93.90;;;;;;5034539;28;20218;-59
2022/05/31 03:14:21;;;;;;;4.83;3.90;;;7.00;94.00;;;;;;5032000;28;20195;-59
2022/05/31 03:16:56;;;;;;;5.70;3.80;;;7.00;94.10;;;;;;5036730;28;20526;-60
2022/05/31 03:19:27;;;;;;;4.37;3.97;;;7.00;95.00;;;;;;5037781;28;20433;-59
2022/05/31 03:21:58;;;;;;;3.93;3.53;;;7.00;95.10;;;;;;5039886;28;20444;-59
2022/05/31 03:24:32;;;;;;;4.60;3.50;;;7.00;95.30;;;;;;5035361;28;20815;-59
2022/05/31 03:27:01;;;;;;;6.03;3.73;;;7.10;94.70;;;;;;5036743;28;20507;-60
2022/05/31 03:29:27;;;;;;;7.07;4.27;;;7.00;94.20;;;;;;5049296;28;20977;-60
2022/05/31 03:31:53;;;;;;;6.90;4.70;;;7.00;94.20;;;;;;5034819;28;20469;-60
2022/05/31 03:34:19;;;;;;;9.90;3.57;;;7.00;94.30;;;;;;5038794;28;20206;-60
2022/05/31 03:36:44;;;;;;;5.20;4.00;;;7.00;94.50;;;;;;5041963;28;20170;-59
2022/05/31 03:39:10;;;;;;;6.53;3.90;;;7.00;95.10;;;;;;5038307;28;20294;-62
2022/05/31 03:41:36;;;;;;;6.23;4.00;;;7.00;96.00;;;;;;5035509;28;20233;-59
2022/05/31 03:44:02;;;;;;;6.40;3.77;;;7.00;96.30;;;;;;5034880;28;20194;-60
2022/05/31 03:46:27;;;;;;;8.30;3.20;;;7.10;97.00;;;;;;5037497;28;20179;-60
2022/05/31 03:48:53;;;;;;;5.30;3.80;;;7.10;96.90;;;;;;5037409;28;20491;-59
2022/05/31 03:51:19;;;;;;;4.33;3.90;;;7.20;96.70;;;;;;5034295;28;20226;-60
2022/05/31 03:53:44;;;;;;;4.93;3.43;;;7.20;96.20;;;;;;5036111;28;20882;-59
2022/05/31 03:56:12;;;;;;;10.17;5.20;;;7.30;95.30;;;;;;5032401;28;20190;-57
2022/05/31 03:58:39;;;;;;;8.43;4.57;;;7.30;95.10;;;;;;5033596;28;20179;-57
2022/05/31 04:01:05;;;;;;;8.23;5.00;;;7.30;94.10;;;;;;5038829;28;21076;-56
2022/05/31 04:03:31;;;;;;;5.07;4.27;;;7.30;94.10;;;;;;5032500;28;20552;-56
2022/05/31 04:05:57;;;;;;;7.93;4.80;;;7.30;93.90;;;;;;5031138;28;20366;-61
2022/05/31 04:08:24;;;;;;;6.13;4.47;;;7.30;93.90;;;;;;5034256;28;21076;-59
2022/05/31 04:10:50;;;;;;;5.53;4.67;;;7.30;94.30;;;;;;5029830;28;20209;-61
2022/05/31 04:13:17;;;;;;;6.87;4.67;;;7.30;94.30;;;;;;5029216;28;20460;-61
2022/05/31 04:15:43;;;;;;;7.13;4.20;;;7.30;94.10;;;;;;5031561;28;20435;-62
2022/05/31 04:18:09;;;;;;;4.17;3.77;;;7.30;94.00;;;;;;5029229;28;20438;-62
2022/05/31 04:20:41;;;;;;;7.30;3.67;;;7.30;94.20;;;;;;5028814;28;20265;-61
2022/05/31 04:26:02;;;;;;;4.30;3.90;;;7.20;94.00;;;;;;5029020;28;20431;-62
2022/05/31 04:28:28;;;;;;;3.77;3.47;;;7.30;94.20;;;;;;5031399;28;20453;-61
2022/05/31 04:30:53;;;;;;;3.60;3.30;;;7.40;94.20;;;;;;5030715;28;20553;-60
2022/05/31 04:33:19;;;;;;;5.17;3.80;;;7.40;94.00;;;;;;5029452;28;20233;-61
2022/05/31 04:35:46;;;;;;;6.57;3.60;;;7.50;94.40;;;;;;5028524;28;20181;-60
2022/05/31 04:38:11;;;;;;;5.63;3.77;;;7.50;93.40;;;;;;5028711;28;20167;-61
2022/05/31 04:40:38;;;;;;;5.90;3.90;;;7.50;94.80;;;;;;5017945;28;21218;-61
2022/05/31 04:43:04;;;;;;;5.53;4.00;;;7.50;94.20;;;;;;5033227;28;20362;-61
2022/05/31 04:45:30;;;;;;;8.60;3.50;;;7.50;94.20;;;;;;5029489;28;20490;-62
2022/05/31 04:47:56;;;;;;;9.70;4.50;;;7.50;95.60;;;;;;5027906;28;20434;-61
2022/05/31 04:50:22;;;;;;;4.60;3.77;;;7.50;95.50;;;;;;5027493;28;20319;-60
2022/05/31 04:52:48;;;;;;;4.90;3.33;;;7.60;96.40;;;;;;5029617;28;20229;-61
2022/05/31 04:55:14;;;;;;;3.53;3.23;;;7.60;96.20;;;;;;5031836;28;20516;-61
2022/05/31 04:57:40;;;;;;;5.53;4.30;;;7.60;96.20;;;;;;5036248;28;20647;-61
2022/05/31 05:00:06;;;;;;;7.63;4.30;;;7.70;96.70;;;;;;5029368;28;20190;-58
2022/05/31 05:02:33;;;;;;;5.50;3.87;;;7.70;96.60;;;;;;5042942;28;20191;-56
2022/05/31 05:04:59;;;;;;;4.17;3.67;;;7.80;93.20;;;;;;5044177;28;20437;-61
2022/05/31 05:07:27;;;;;;;4.40;4.00;;;7.70;93.90;;;;;;5035732;28;20487;-61
2022/05/31 05:09:53;;;;;;;4.70;4.00;;;7.70;95.10;;;;;;5030939;28;20190;-61
2022/05/31 05:12:18;;;;;;;6.07;3.67;;;7.70;95.20;;;;;;5035922;28;20429;-61
2022/05/31 05:14:44;;;;;;;4.80;3.87;;;7.70;95.70;;;;;;5034090;28;20198;-60
2022/05/31 05:17:10;;;;;;;4.13;3.60;;;7.70;96.80;;;;;;5040466;28;20212;-61
2022/05/31 05:19:35;;;;;;;4.20;3.80;;;7.80;96.80;;;;;;5045184;28;20278;-61
2022/05/31 05:22:01;;;;;;;5.77;5.17;;;7.90;97.00;;;;;;5036532;28;20207;-61
2022/05/31 05:24:27;;;;;;;7.57;5.23;;;7.90;97.30;;;;;;5038382;28;20234;-60
2022/05/31 05:26:53;;;;;;;5.30;4.67;;;8.00;96.60;;;;;;5042060;28;20193;-61
2022/05/31 05:32:07;;;;;;;5.33;4.40;;;8.20;96.10;;;;;;5038616;28;20264;-60
2022/05/31 05:34:33;;;;;;;5.63;3.83;;;8.30;93.90;;;;;;5032961;28;20456;-55
2022/05/31 05:36:59;;;;;;;6.47;4.80;;;8.30;93.00;;;;;;5037037;28;20803;-62
2022/05/31 05:39:24;;;;;;;7.63;4.40;;;8.30;93.50;;;;;;5044074;28;20309;-61
2022/05/31 05:41:50;;;;;;;7.77;4.63;;;8.40;92.40;;;;;;5063699;28;20548;-60
2022/05/31 05:44:16;;;;;;;7.50;6.10;;;8.50;92.50;;;;;;5071303;28;20202;-61
2022/05/31 05:46:41;;;;;;;4.67;3.43;;;8.60;92.00;;;;;;5054475;28;20230;-61
2022/05/31 05:49:07;;;;;;;3.63;3.30;;;8.80;90.10;;;;;;5050674;28;20737;-61
2022/05/31 05:51:33;;;;;;;4.57;3.43;;;8.90;84.90;;;;;;5055896;28;20209;-62
2022/05/31 05:54:02;;;;;;;6.30;3.33;;;9.00;84.40;;;;;;5054873;28;20462;-62
2022/05/31 05:56:29;;;;;;;5.03;3.57;;;9.10;86.60;;;;;;5050575;28;20442;-61
2022/05/31 05:58:54;;;;;;;5.50;3.73;;;9.10;82.20;;;;;;5050610;28;20785;-61
2022/05/31 06:01:32;;;;;;;4.03;3.63;;;9.30;82.80;;;;;;5041339;28;20439;-61
2022/05/31 06:04:04;;;;;;;11.33;4.13;;;9.50;83.70;;;;;;5052733;28;20202;-61
2022/05/31 06:06:31;;;;;;;16.60;4.47;;;9.70;84.50;;;;;;5056364;28;20433;-61
2022/05/31 06:09:01;;;;;;;16.97;4.40;;;9.90;81.60;;;;;;5058548;28;20575;-61
2022/05/31 06:11:48;;;;;;;17.97;4.07;;;10.10;78.90;;;;;;5056498;28;20518;-61
2022/05/31 06:14:22;;;;;;;4.03;3.63;;;10.30;79.30;;;;;;5048794;28;20813;-61
2022/05/31 06:16:52;;;;;;;8.20;4.10;;;10.50;77.70;;;;;;5062867;28;20428;-61
2022/05/31 06:19:31;;;;;;;3.60;3.30;;;10.60;77.10;;;;;;5053007;28;20443;-62
2022/05/31 06:21:58;;;;;;;4.53;3.97;;;10.60;77.10;;;;;;5038678;28;20491;-61
2022/05/31 06:24:27;;;;;;;5.33;4.00;;;10.70;77.60;;;;;;5042081;28;20514;-61
2022/05/31 06:26:52;;;;;;;9.37;4.27;;;10.80;77.70;;;;;;5058450;28;20432;-61
2022/05/31 06:29:18;;;;;;;9.63;5.30;;;10.90;76.60;;;;;;5056991;28;20892;-61
2022/05/31 06:31:43;;;;;;;9.83;4.70;;;11.00;75.30;;;;;;5053807;28;20210;-59
2022/05/31 06:34:10;;;;;;;7.67;4.93;;;11.10;74.40;;;;;;5045671;28;20195;-61
2022/05/31 06:36:35;;;;;;;13.77;4.80;;;11.10;75.20;;;;;;5038435;28;20180;-61
2022/05/31 06:39:01;;;;;;;5.00;4.07;;;11.10;75.10;;;;;;5042570;28;20432;-61
2022/05/31 06:41:26;;;;;;;5.90;4.57;;;11.10;73.60;;;;;;5043921;28;20183;-62
2022/05/31 06:43:52;;;;;;;6.87;3.80;;;11.10;73.00;;;;;;5043664;28;20209;-61
2022/05/31 06:46:19;;;;;;;4.20;3.50;;;11.00;73.40;;;;;;5045262;28;20182;-62
2022/05/31 06:48:45;;;;;;;5.30;3.90;;;11.10;73.20;;;;;;5042941;28;20188;-62
2022/05/31 06:51:13;;;;;;;4.67;3.33;;;11.10;71.70;;;;;;5039044;28;20489;-62
2022/05/31 06:59:08;;;;;;;4.00;3.10;;;11.50;68.20;;;;;;5036628;28;20433;-61
2022/05/31 07:01:37;;;;;;;6.83;3.50;;;11.60;68.30;;;;;;5033489;28;20961;-62
2022/05/31 07:04:05;;;;;;;5.47;3.97;;;11.80;67.70;;;;;;5038621;28;20462;-63
2022/05/31 07:06:34;;;;;;;8.60;4.27;;;12.00;67.20;;;;;;5042990;28;20426;-62
2022/05/31 07:08:59;;;;;;;11.00;3.47;;;12.10;67.10;;;;;;5041097;28;20448;-62
2022/05/31 07:11:26;;;;;;;6.80;3.37;;;12.30;65.40;;;;;;5054012;28;20953;-61
2022/05/31 07:13:52;;;;;;;4.23;3.70;;;12.50;64.10;;;;;;5037507;28;20183;-60
2022/05/31 07:16:18;;;;;;;4.33;3.33;;;12.60;63.00;;;;;;5040958;28;20422;-61
2022/05/31 07:18:43;;;;;;;4.07;3.67;;;12.80;63.10;;;;;;5041640;28;20483;-62
2022/05/31 07:21:10;;;;;;;5.83;3.50;;;13.00;63.60;;;;;;5042146;28;20196;-61
2022/05/31 07:23:36;;;;;;;3.30;3.00;;;13.10;61.80;;;;;;5039032;28;20195;-61
2022/05/31 07:26:04;;;;;;;4.87;3.53;;;13.30;62.30;;;;;;5033499;28;20431;-61
2022/05/31 07:28:29;;;;;;;11.73;3.77;;;13.50;62.80;;;;;;5047176;28;20425;-61
2022/05/31 07:30:56;;;;;;;4.90;3.60;;;13.70;62.30;;;;;;5036382;28;20456;-62
2022/05/31 07:33:21;;;;;;;8.53;3.83;;;13.80;61.30;;;;;;5040562;28;20193;-62
2022/05/31 07:35:49;;;;;;;4.70;3.33;;;14.00;61.80;;;;;;5048922;28;20445;-61
2022/05/31 07:38:15;;;;;;;7.77;4.20;;;14.10;61.30;;;;;;5040068;28;20434;-61
2022/05/31 07:40:41;;;;;;;6.83;3.93;;;14.20;61.00;;;;;;5034317;28;20445;-62
2022/05/31 07:43:06;;;;;;;4.60;3.97;;;14.30;59.80;;;;;;5032082;28;20454;-62
2022/05/31 07:45:32;;;;;;;8.63;3.87;;;14.40;59.30;;;;;;5047423;28;20178;-61
2022/05/31 07:47:57;;;;;;;6.37;3.90;;;14.40;58.60;;;;;;5038157;28;20246;-61
2022/05/31 07:50:23;;;;;;;10.90;4.90;;;14.40;58.80;;;;;;5045559;28;20739;-61
2022/05/31 07:52:49;;;;;;;8.20;3.90;;;14.50;58.80;;;;;;5036916;28;20195;-62
2022/05/31 07:55:15;;;;;;;4.10;3.80;;;14.60;58.70;;;;;;5031419;28;20237;-61
2022/05/31 08:00:25;;;;;;;11.50;3.70;;;14.80;58.30;;;;;;5033576;28;23644;-61
2022/05/31 08:02:50;;;;;;;14.70;3.60;;;15.00;58.20;;;;;;5037413;28;20461;-62
2022/05/31 08:05:16;;;;;;;12.03;3.63;;;15.10;58.40;;;;;;5050181;28;20175;-61
2022/05/31 08:07:42;;;;;;;10.47;4.40;;;15.30;58.50;;;;;;5059894;28;20174;-61
2022/05/31 08:10:09;;;;;;;6.40;3.70;;;15.50;57.20;;;;;;5036219;28;20183;-62
2022/05/31 08:12:35;;;;;;;4.03;3.40;;;15.60;57.20;;;;;;5041804;28;20962;-62
2022/05/31 08:15:01;;;;;;;4.07;3.30;;;15.70;56.90;;;;;;5044820;28;20433;-60
2022/05/31 08:17:27;;;;;;;7.13;3.33;;;15.90;57.80;;;;;;5048522;28;20587;-61
2022/05/31 08:19:54;;;;;;;2.83;2.40;;;16.10;56.80;;;;;;5045240;28;20200;-63
2022/05/31 08:22:20;;;;;;;3.73;2.30;;;16.30;56.30;;;;;;5052427;28;20925;-63
2022/05/31 08:24:46;;;;;;;3.53;2.60;;;16.50;55.00;;;;;;5059423;28;20902;-57
2022/05/31 08:27:13;;;;;;;5.67;2.70;;;16.70;54.30;;;;;;5058643;28;20461;-62
2022/05/31 08:29:39;;;;;;;5.20;2.20;;;16.90;53.60;;;;;;5045366;28;20926;-63
2022/05/31 08:32:06;;;;;;;10.23;2.53;;;17.00;53.30;;;;;;5053605;28;21118;-58
2022/05/31 08:34:32;;;;;;;3.63;2.47;;;17.10;52.10;;;;;;5051939;28;21023;-62
2022/05/31 08:36:58;;;;;;;4.20;2.13;;;17.20;50.10;;;;;;5067104;28;20393;-62
2022/05/31 08:39:24;;;;;;;2.70;2.20;;;17.20;48.40;;;;;;5043291;28;21091;-62
2022/05/31 08:41:54;;;;;;;5.53;2.00;;;17.20;47.20;;;;;;5048358;28;20435;-61
2022/05/31 08:44:25;;;;;;;3.80;2.33;;;17.30;47.90;;;;;;5037951;28;20489;-62
2022/05/31 08:47:02;;;;;;;4.97;2.40;;;17.50;47.20;;;;;;5042773;28;20429;-63
2022/05/31 08:52:54;;;;;;;3.57;2.07;;;17.60;46.40;;;;;;5036137;28;20966;-61
2022/05/31 08:58:34;;;;;;;6.73;2.90;;;17.60;45.90;;;;;;5038059;28;20461;-62
2022/05/31 09:01:03;;;;;;;2.20;2.00;;;17.60;45.50;;;;;;5040633;28;21096;-62
2022/05/31 09:03:37;;;;;;;7.00;2.20;;;17.50;45.70;;;;;;5038455;28;20485;-62
2022/05/31 09:06:09;;;;;;;6.50;2.43;;;17.50;45.90;;;;;;5039786;28;20438;-61
2022/05/31 09:08:51;;;;;;;3.30;2.23;;;17.70;46.20;;;;;;5038430;28;20986;-62
2022/05/31 09:11:23;;;;;;;3.33;2.00;;;17.90;45.80;;;;;;5065063;28;20471;-61
2022/05/31 09:13:50;;;;;;;2.70;2.20;;;18.10;45.50;;;;;;5036639;28;20454;-62
2022/05/31 09:16:58;;;;;;;2.43;2.10;;;18.20;44.70;;;;;;5035128;28;20946;-61
2022/05/31 09:19:32;;;;;;;5.97;3.80;;;18.30;45.20;;;;;;5037834;28;20433;-61
2022/05/31 09:22:01;;;;;;;10.10;2.90;;;18.50;46.50;;;;;;5038457;28;20433;-60
2022/05/31 09:24:27;;;;;;;10.53;2.43;;;18.70;46.10;;;;;;5038739;28;20590;-62
2022/05/31 09:27:14;;;;;;;3.27;2.30;;;18.90;45.10;;;;;;5042321;28;20447;-62
2022/05/31 09:30:07;;;;;;;4.13;2.20;;;19.00;45.10;;;;;;5041749;28;20437;-62
2022/05/31 09:33:06;;;;;;;3.50;2.10;;;19.10;45.60;;;;;;5042830;28;20438;-61
2022/05/31 09:35:44;;;;;;;4.77;2.60;;;19.20;43.20;;;;;;5038308;28;21177;-61
2022/05/31 09:38:27;;;;;;;2.30;2.00;;;19.10;44.10;;;;;;5038257;28;20480;-61
2022/05/31 09:41:08;;;;;;;4.77;2.03;;;19.00;44.20;;;;;;5042146;28;20516;-62
2022/05/31 09:44:08;;;;;;;3.10;2.10;;;19.00;44.50;;;;;;5051261;28;20449;-61
2022/05/31 09:46:48;;;;;;;4.83;2.53;;;18.90;44.50;;;;;;5042632;28;20524;-61
2022/05/31 09:49:40;;;;;;;6.17;2.40;;;18.90;45.10;;;;;;5047867;28;20442;-61
2022/05/31 09:52:31;;;;;;;2.67;2.20;;;19.00;45.30;;;;;;5053989;28;20561;-63
2022/05/31 09:58:04;;;;;;;4.37;2.40;;;19.40;44.70;;;;;;5043613;28;20523;-62
2022/05/31 10:00:29;;;;;;;2.53;2.10;;;19.50;45.70;;;;;;5044513;28;20480;-60
2022/05/31 10:03:12;;;;;;;5.53;2.10;;;19.70;46.40;;;;;;5042151;28;20989;-60
2022/05/31 10:05:40;;;;;;;5.57;3.20;;;19.90;47.10;;;;;;5044033;28;20232;-60
2022/05/31 10:08:16;;;;;;;3.03;2.67;;;20.20;46.00;;;;;;5038771;28;20441;-60
2022/05/31 10:10:48;;;;;;;3.23;2.10;;;20.10;44.80;;;;;;5045354;28;20465;-60
2022/05/31 10:13:34;;;;;;;4.10;2.37;;;20.00;43.00;;;;;;5047339;28;20450;-62
2022/05/31 10:16:19;;;;;;;3.30;2.43;;;20.10;44.60;;;;;;5036622;28;20437;-63
2022/05/31 10:19:10;;;;;;;4.50;2.27;;;20.30;44.70;;;;;;5038614;28;20660;-62
2022/05/31 10:21:43;;;;;;;5.10;2.07;;;20.50;44.50;;;;;;5042812;28;20444;-62
2022/05/31 10:24:27;;;;;;;8.33;2.43;;;20.90;43.70;;;;;;5040418;28;20453;-62
2022/05/31 10:27:13;;;;;;;4.20;2.00;;;21.10;41.80;;;;;;5039097;28;20429;-62
2022/05/31 10:29:52;;;;;;;3.93;2.20;;;21.40;39.00;;;;;;5041978;28;20476;-63
2022/05/31 10:32:34;;;;;;;5.07;1.93;;;21.50;37.70;;;;;;5050625;28;21005;-61
2022/05/31 10:35:13;;;;;;;2.23;1.90;;;21.30;37.60;;;;;;5039364;28;20464;-62
2022/05/31 10:37:48;;;;;;;4.50;2.63;;;21.10;38.30;;;;;;5046330;28;20429;-61
2022/05/31 10:40:22;;;;;;;3.03;1.63;;;20.80;38.40;;;;;;5043921;28;20483;-57
2022/05/31 10:42:50;;;;;;;6.43;2.10;;;20.70;38.60;;;;;;5044687;28;20457;-57
2022/05/31 10:45:26;;;;;;;2.93;1.97;;;20.70;39.00;;;;;;5045159;28;20428;-57
2022/05/31 10:47:55;;;;;;;6.63;2.23;;;20.70;39.00;;;;;;5044302;28;20804;-57
2022/05/31 10:50:24;;;;;;;5.73;2.00;;;20.70;38.80;;;;;;5040209;28;20550;-57
2022/05/31 10:53:17;;;;;;;2.80;1.83;;;20.80;38.80;;;;;;5038170;28;20465;-58
2022/05/31 10:55:53;;;;;;;6.80;2.13;;;20.90;39.20;;;;;;5039834;28;20411;-59
2022/05/31 10:58:41;;;;;;;3.23;2.27;;;21.00;39.70;;;;;;5039972;28;20424;-58
2022/05/31 11:01:30;;;;;;;6.43;2.57;;;21.20;40.80;;;;;;5034079;28;20481;-58
2022/05/31 11:04:11;;;;;;;3.90;2.17;;;21.10;39.30;;;;;;5038569;28;20458;-62
2022/05/31 11:06:55;;;;;;;2.70;1.70;;;21.10;40.10;;;;;;5055270;28;20425;-62
2022/05/31 11:12:56;;;;;;;5.37;1.93;;;21.20;39.30;;;;;;5040711;28;20564;-62
2022/05/31 11:15:28;;;;;;;3.90;1.90;;;21.20;40.10;;;;;;5048570;28;20933;-62
2022/05/31 11:18:02;;;;;;;2.00;1.90;;;21.20;39.90;;;;;;5039257;28;20422;-62
2022/05/31 11:21:00;;;;;;;4.73;1.93;;;21.30;39.70;;;;;;5041777;28;20931;-62
2022/05/31 11:23:54;;;;;;;3.80;1.97;;;21.60;39.60;;;;;;5055635;28;20453;-62
2022/05/31 11:26:34;;;;;;;3.23;1.90;;;21.80;39.00;;;;;;5029420;28;20418;-62
2022/05/31 11:29:09;;;;;;;4.80;2.30;;;21.90;37.80;;;;;;5051452;28;20456;-62
2022/05/31 11:32:07;;;;;;;3.33;2.37;;;21.80;38.00;;;;;;5050376;28;20522;-62
2022/05/31 11:34:36;;;;;;;4.87;2.00;;;21.70;38.10;;;;;;5040628;28;20468;-62
2022/05/31 11:37:40;;;;;;;3.40;1.73;;;21.50;38.40;;;;;;5044811;28;20434;-62
2022/05/31 11:40:19;;;;;;;5.07;1.70;;;21.40;39.10;;;;;;5043222;28;20406;-62
2022/05/31 11:43:06;;;;;;;2.50;1.93;;;21.10;39.80;;;;;;5044343;28;20423;-63
2022/05/31 11:45:55;;;;;;;3.03;1.90;;;20.90;39.70;;;;;;5047366;28;20499;-62
2022/05/31 11:48:47;;;;;;;2.77;2.00;;;20.80;39.90;;;;;;5041223;28;20430;-62
2022/05/31 11:51:54;;;;;;;2.50;2.20;;;20.80;39.90;;;;;;5049480;28;20468;-62
2022/05/31 11:54:26;;;;;;;4.20;2.20;;;20.60;40.30;;;;;;5036261;28;20536;-62
2022/05/31 11:57:28;;;;;;;3.80;2.23;;;20.50;41.10;;;;;;5034492;28;20537;-62
2022/05/31 11:59:58;;;;;;;3.53;2.13;;;20.40;41.30;;;;;;5040158;28;20434;-62
2022/05/31 12:02:39;;;;;;;3.83;2.10;;;20.30;41.90;;;;;;5043650;28;20875;-61
2022/05/31 12:05:14;;;;;;;12.03;2.70;;;20.20;42.30;;;;;;5042361;28;20516;-62
2022/05/31 12:07:46;;;;;;;4.77;2.43;;;20.10;42.60;;;;;;5055864;28;20486;-62
2022/05/31 12:10:22;;;;;;;6.30;2.63;;;19.90;42.60;;;;;;5045238;28;20454;-61
2022/05/31 12:12:50;;;;;;;9.13;2.70;;;19.80;42.90;;;;;;5052507;28;20432;-62
2022/05/31 12:15:23;;;;;;;7.43;2.40;;;19.70;42.90;;;;;;5032630;28;20461;-62
2022/05/31 12:18:07;;;;;;;3.03;1.93;;;19.50;42.80;;;;;;5051027;28;20437;-63
2022/05/31 12:20:51;;;;;;;4.70;2.57;;;19.30;43.10;;;;;;5047330;28;20437;-61
2022/05/31 12:23:42;;;;;;;6.83;2.20;;;19.10;43.50;;;;;;5043733;28;20535;-62
2022/05/31 12:26:45;;;;;;;10.73;1.90;;;19.00;43.90;;;;;;5050048;28;20881;-62
2022/05/31 12:29:20;;;;;;;3.40;2.10;;;18.80;44.20;;;;;;5028029;28;20418;-62
2022/05/31 12:31:46;;;;;;;3.20;2.10;;;18.70;44.40;;;;;;5039824;28;21199;-62
2022/05/31 12:34:21;;;;;;;3.97;2.13;;;18.70;44.70;;;;;;5049501;28;20470;-60
2022/05/31 12:37:03;;;;;;;4.77;2.67;;;18.70;45.10;;;;;;5042813;28;20977;-61
2022/05/31 12:39:33;;;;;;;7.80;2.30;;;18.70;45.10;;;;;;5044856;28;20441;-62
2022/05/31 12:42:19;;;;;;;2.77;2.17;;;18.70;44.90;;;;;;5048919;28;20455;-62
2022/05/31 12:44:47;;;;;;;3.63;2.50;;;18.70;45.20;;;;;;5036773;28;20467;-62
2022/05/31 12:47:33;;;;;;;4.13;2.37;;;18.60;45.20;;;;;;5050301;28;20459;-62
2022/05/31 12:50:06;;;;;;;4.90;2.23;;;18.60;45.50;;;;;;5042811;28;20650;-62
2022/05/31 12:53:17;;;;;;;4.50;2.20;;;18.70;45.60;;;;;;5045017;28;20737;-62
2022/05/31 12:55:42;;;;;;;5.93;2.50;;;19.00;45.40;;;;;;5040854;28;20434;-62
2022/05/31 12:58:41;;;;;;;4.90;2.30;;;19.20;45.00;;;;;;5036855;28;20434;-62
2022/05/31 13:01:15;;;;;;;6.07;2.67;;;19.30;45.50;;;;;;5038072;28;20326;-62
2022/05/31 13:03:43;;;;;;;2.80;2.50;;;19.40;46.00;;;;;;5044761;28;20950;-62
2022/05/31 13:06:10;;;;;;;3.10;2.43;;;19.50;46.40;;;;;;5046483;28;20968;-62
2022/05/31 13:09:00;;;;;;;6.07;2.60;;;19.70;46.30;;;;;;5038136;28;20441;-62
2022/05/31 13:20:09;;;;;;;3.40;2.77;;;21.60;44.10;;;;;;5052590;28;20468;-62
2022/05/31 13:22:39;;;;;;;5.60;2.97;;;21.70;42.90;;;;;;5042907;28;20421;-62
2022/05/31 13:25:17;;;;;;;4.17;2.63;;;21.70;42.60;;;;;;5054798;28;20517;-62
2022/05/31 13:27:50;;;;;;;2.77;2.17;;;21.90;43.40;;;;;;5047835;28;20429;-62
2022/05/31 13:30:19;;;;;;;2.87;2.30;;;22.30;42.20;;;;;;5053141;28;20918;-61
2022/05/31 13:32:44;;;;;;;4.97;2.33;;;22.40;41.30;;;;;;5062392;28;20500;-61
2022/05/31 13:35:13;;;;;;;2.53;2.30;;;22.60;41.60;;;;;;5055113;28;20575;-60
2022/05/31 13:37:55;;;;;;;2.87;2.53;;;23.00;42.40;;;;;;5047964;28;20179;-62
2022/05/31 13:40:22;;;;;;;3.67;2.60;;;23.50;41.20;;;;;;5055155;28;20915;-62
2022/05/31 13:42:49;;;;;;;2.60;2.10;;;23.90;40.70;;;;;;5041245;28;20458;-62
2022/05/31 13:45:20;;;;;;;11.93;3.33;;;24.10;38.80;;;;;;5032170;28;20402;-62
2022/05/31 13:47:52;;;;;;;5.90;2.20;;;24.10;39.50;;;;;;5057707;28;20429;-61